createdAt,value
2023-01-10T00:00:38.183Z,1.77
2023-01-10T00:03:08.129Z,1.52
2023-01-10T00:05:36.236Z,2.15
2023-01-10T00:08:03.554Z,2.17
2023-01-10T00:10:31.335Z,2.05
2023-01-10T00:13:16.437Z,2.05
2023-01-10T00:15:43.215Z,2.20
2023-01-10T00:18:10.082Z,1.80
2023-01-10T00:20:36.766Z,2.38
2023-01-10T00:23:03.701Z,2.10
2023-01-10T00:25:33.276Z,2.47
2023-01-10T00:28:04.821Z,2.03
2023-01-10T00:30:33.702Z,3.08
2023-01-10T00:33:00.592Z,2.50
2023-01-10T00:35:27.296Z,2.90
2023-01-10T00:37:58.668Z,2.65
2023-01-10T00:40:25.332Z,3.20
2023-01-10T00:43:10.681Z,3.67
2023-01-10T00:48:03.973Z,3.50
2023-01-10T00:50:30.672Z,3.42
2023-01-10T00:52:57.370Z,3.95
2023-01-10T00:55:23.993Z,3.78
2023-01-10T00:57:50.627Z,4.25
2023-01-10T01:00:17.383Z,3.88
2023-01-10T01:02:44.099Z,4.10
2023-01-10T01:05:10.873Z,3.75
2023-01-10T01:07:37.560Z,3.60
2023-01-10T01:10:22.982Z,3.38
2023-01-10T01:12:49.583Z,3.15
2023-01-10T01:15:16.336Z,2.58
2023-01-10T01:17:42.954Z,3.17
2023-01-10T01:20:10.855Z,3.13
2023-01-10T01:22:37.663Z,2.60
2023-01-10T01:25:04.868Z,2.55
2023-01-10T01:27:31.996Z,2.17
2023-01-10T01:29:58.619Z,2.40
2023-01-10T01:32:25.320Z,2.33
2023-01-10T01:34:52.239Z,2.13
2023-01-10T01:37:19.684Z,2.92
2023-01-10T01:39:46.767Z,2.38
2023-01-10T01:42:33.737Z,2.47
2023-01-10T01:45:09.612Z,2.08
2023-01-10T01:47:38.889Z,2.80
2023-01-10T01:50:06.013Z,2.70
2023-01-10T01:52:34.734Z,2.60
2023-01-10T01:55:03.271Z,3.00
2023-01-10T01:57:32.499Z,2.70
2023-01-10T02:00:02.101Z,3.13
2023-01-10T02:02:32.337Z,3.53
2023-01-10T02:05:09.477Z,2.72
2023-01-10T02:07:43.668Z,3.78
2023-01-10T02:10:28.682Z,3.28
2023-01-10T02:13:00.043Z,2.83
2023-01-10T02:15:26.781Z,3.03
2023-01-10T02:17:53.735Z,2.97
2023-01-10T02:20:22.446Z,2.33
2023-01-10T02:23:04.178Z,2.95
2023-01-10T02:25:56.770Z,2.40
2023-01-10T02:28:39.080Z,3.05
2023-01-10T02:31:26.979Z,2.70
2023-01-10T02:34:19.429Z,3.58
2023-01-10T02:37:04.165Z,3.40
2023-01-10T02:39:40.865Z,3.30
2023-01-10T02:42:11.878Z,2.83
2023-01-10T02:44:38.445Z,2.85
2023-01-10T02:47:07.292Z,2.83
2023-01-10T02:49:48.564Z,2.80
2023-01-10T02:52:23.446Z,2.63
2023-01-10T02:54:55.806Z,2.70
2023-01-10T02:57:50.408Z,2.60
2023-01-10T03:00:42.094Z,2.50
2023-01-10T03:05:52.146Z,2.10
2023-01-10T03:08:27.862Z,2.72
2023-01-10T03:11:00.654Z,2.97
2023-01-10T03:13:33.052Z,2.85
2023-01-10T03:16:01.553Z,3.00
2023-01-10T03:18:36.211Z,3.05
2023-01-10T03:21:05.929Z,2.67
2023-01-10T03:23:34.981Z,2.47
2023-01-10T03:26:03.472Z,2.90
2023-01-10T03:28:46.323Z,2.40
2023-01-10T03:31:23.060Z,3.05
2023-01-10T03:33:50.176Z,2.58
2023-01-10T03:36:41.169Z,2.70
2023-01-10T03:39:34.085Z,2.70
2023-01-10T03:42:23.436Z,2.85
2023-01-10T03:45:09.464Z,2.47
2023-01-10T03:47:45.434Z,2.80
2023-01-10T03:50:17.503Z,2.33
2023-01-10T03:52:44.692Z,2.85
2023-01-10T03:55:14.531Z,2.72
2023-01-10T03:57:48.870Z,2.25
2023-01-10T04:00:16.666Z,2.75
2023-01-10T04:02:44.271Z,2.42
2023-01-10T04:05:12.155Z,2.20
2023-01-10T04:07:39.077Z,2.38
2023-01-10T04:10:06.735Z,2.45
2023-01-10T04:12:33.476Z,2.67
2023-01-10T04:15:01.422Z,2.33
2023-01-10T04:17:28.052Z,2.55
2023-01-10T04:19:55.017Z,3.17
2023-01-10T04:22:21.666Z,3.03
2023-01-10T04:24:51.124Z,2.55
2023-01-10T04:27:18.252Z,2.45
2023-01-10T04:29:44.910Z,2.85
2023-01-10T04:32:11.645Z,2.28
2023-01-10T04:34:38.442Z,3.10
2023-01-10T04:37:05.413Z,2.75
2023-01-10T04:39:32.106Z,2.22
2023-01-10T04:41:58.822Z,2.20
2023-01-10T04:44:25.468Z,3.33
2023-01-10T04:46:52.110Z,2.40
2023-01-10T04:49:18.917Z,2.95
2023-01-10T04:51:45.555Z,3.00
2023-01-10T04:54:12.242Z,2.10
2023-01-10T04:56:39.881Z,2.88
2023-01-10T04:59:06.665Z,2.60
2023-01-10T05:01:35.451Z,2.92
2023-01-10T05:04:03.212Z,2.72
2023-01-10T05:06:30.061Z,2.65
2023-01-10T05:08:57.100Z,2.45
2023-01-10T05:11:24.117Z,2.90
2023-01-10T05:13:51.100Z,2.50
2023-01-10T05:16:17.858Z,2.25
2023-01-10T05:18:45.071Z,2.80
2023-01-10T05:21:13.639Z,2.90
2023-01-10T05:23:40.713Z,3.40
2023-01-10T05:26:10.150Z,2.78
2023-01-10T05:28:37.552Z,2.47
2023-01-10T05:31:07.386Z,2.42
2023-01-10T05:33:34.283Z,2.63
2023-01-10T05:36:05.480Z,2.42
2023-01-10T05:38:33.064Z,2.60
2023-01-10T05:41:00.538Z,2.53
2023-01-10T05:43:27.944Z,3.55
2023-01-10T05:45:54.693Z,2.83
2023-01-10T05:48:21.547Z,2.45
2023-01-10T05:50:50.318Z,2.58
2023-01-10T05:53:17.710Z,2.10
2023-01-10T05:55:44.531Z,2.63
2023-01-10T05:58:11.459Z,3.92
2023-01-10T06:00:39.828Z,2.40
2023-01-10T06:03:06.726Z,2.47
2023-01-10T06:05:33.510Z,2.42
2023-01-10T06:08:00.194Z,3.13
2023-01-10T06:10:27.285Z,2.55
2023-01-10T06:12:55.118Z,2.30
2023-01-10T06:15:21.843Z,2.97
2023-01-10T06:17:48.576Z,2.92
2023-01-10T06:20:15.624Z,2.33
2023-01-10T06:22:43.134Z,2.95
2023-01-10T06:25:13.469Z,2.92
2023-01-10T06:27:44.032Z,2.97
2023-01-10T06:30:13.381Z,2.65
2023-01-10T06:32:41.002Z,2.00
2023-01-10T06:35:07.983Z,2.85
2023-01-10T06:37:34.614Z,2.95
2023-01-10T06:40:01.238Z,2.40
2023-01-10T06:42:27.905Z,2.90
2023-01-10T06:44:54.577Z,2.28
2023-01-10T06:47:21.269Z,2.60
2023-01-10T06:49:47.977Z,2.72
2023-01-10T06:52:14.648Z,2.75
2023-01-10T06:54:41.633Z,2.97
2023-01-10T06:57:08.679Z,2.83
2023-01-10T06:59:35.346Z,2.90
2023-01-10T07:02:02.196Z,2.22
2023-01-10T07:04:28.973Z,3.08
2023-01-10T07:06:55.671Z,2.33
2023-01-10T07:09:22.405Z,2.35
2023-01-10T07:11:49.032Z,2.30
2023-01-10T07:14:15.680Z,2.72
2023-01-10T07:16:42.378Z,2.35
2023-01-10T07:19:09.897Z,2.47
2023-01-10T07:21:36.590Z,1.83
2023-01-10T07:24:03.268Z,2.38
2023-01-10T07:26:30.007Z,2.00
2023-01-10T07:28:56.895Z,2.90
2023-01-10T07:31:24.483Z,2.45
2023-01-10T07:33:52.234Z,3.00
2023-01-10T07:36:19.624Z,2.78
2023-01-10T07:38:46.534Z,2.75
2023-01-10T07:41:13.179Z,3.10
2023-01-10T07:43:39.973Z,3.65
2023-01-10T07:46:12.120Z,2.78
2023-01-10T07:48:41.808Z,4.13
2023-01-10T07:51:08.537Z,2.70
2023-01-10T07:53:35.257Z,2.97
2023-01-10T07:56:03.523Z,3.33
2023-01-10T07:58:30.653Z,3.03
2023-01-10T08:01:03.005Z,2.80
2023-01-10T08:03:30.329Z,3.17
2023-01-10T08:06:01.945Z,3.30
2023-01-10T08:08:29.212Z,3.15
2023-01-10T08:10:56.365Z,3.17
2023-01-10T08:13:23.170Z,3.28
2023-01-10T08:15:51.703Z,3.35
2023-01-10T08:18:20.186Z,3.53
2023-01-10T08:20:49.554Z,3.55
2023-01-10T08:23:16.905Z,3.58
2023-01-10T08:25:43.909Z,3.72
2023-01-10T08:28:10.654Z,3.47
2023-01-10T08:30:38.350Z,3.40
2023-01-10T08:33:06.667Z,4.30
2023-01-10T08:35:42.209Z,4.18
2023-01-10T08:38:09.966Z,4.80
2023-01-10T08:40:37.133Z,3.50
2023-01-10T08:43:06.705Z,3.80
2023-01-10T08:45:34.123Z,4.25
2023-01-10T08:48:01.713Z,4.68
2023-01-10T08:50:28.450Z,4.65
2023-01-10T08:52:58.377Z,5.05
2023-01-10T08:55:26.089Z,4.25
2023-01-10T08:57:52.797Z,4.60
2023-01-10T09:00:19.972Z,4.57
2023-01-10T09:02:46.709Z,4.75
2023-01-10T09:05:26.436Z,5.40
2023-01-10T09:07:59.039Z,5.00
2023-01-10T09:10:26.483Z,5.15
2023-01-10T09:12:55.970Z,4.47
2023-01-10T09:15:24.868Z,4.68
2023-01-10T09:17:59.752Z,4.63
2023-01-10T09:20:28.108Z,5.85
2023-01-10T09:22:56.682Z,6.15
2023-01-10T09:25:23.861Z,4.72
2023-01-10T09:28:01.146Z,5.88
2023-01-10T09:30:29.044Z,4.85
2023-01-10T09:32:56.754Z,6.28
2023-01-10T09:35:24.773Z,4.95
2023-01-10T09:37:55.000Z,7.05
2023-01-10T09:40:32.899Z,5.90
2023-01-10T09:43:33.113Z,5.90
2023-01-10T09:46:06.402Z,5.35
2023-01-10T09:48:35.859Z,5.75
2023-01-10T09:51:23.768Z,5.07
2023-01-10T09:53:55.770Z,5.95
2023-01-10T09:56:29.352Z,5.22
2023-01-10T09:58:57.331Z,5.35
2023-01-10T10:01:32.625Z,6.25
2023-01-10T10:04:07.378Z,5.97
2023-01-10T10:06:34.637Z,5.40
2023-01-10T10:09:04.153Z,5.05
2023-01-10T10:11:50.091Z,4.55
2023-01-10T10:16:56.833Z,4.82
2023-01-10T10:20:00.090Z,5.00
2023-01-10T10:22:57.684Z,5.38
2023-01-10T10:25:42.311Z,4.88
2023-01-10T10:28:37.351Z,4.65
2023-01-10T10:31:50.470Z,5.38
2023-01-10T10:34:38.722Z,4.07
2023-01-10T10:37:25.849Z,4.30
2023-01-10T10:40:02.167Z,4.13
2023-01-10T10:42:33.336Z,3.80
2023-01-10T10:45:04.942Z,4.07
2023-01-10T10:47:34.932Z,3.90
2023-01-10T10:50:33.612Z,4.40
2023-01-10T10:53:02.727Z,4.07
2023-01-10T10:55:32.982Z,3.60
2023-01-10T10:58:01.253Z,3.72
2023-01-10T11:00:29.697Z,3.30
2023-01-10T11:03:02.641Z,3.05
2023-01-10T11:05:41.525Z,2.97
2023-01-10T11:08:15.964Z,3.08
2023-01-10T11:10:55.158Z,2.90
2023-01-10T11:13:35.416Z,3.00
2023-01-10T11:16:05.567Z,2.55
2023-01-10T11:18:32.995Z,3.15
2023-01-10T11:21:22.035Z,2.50
2023-01-10T11:23:52.732Z,3.05
2023-01-10T11:26:34.357Z,2.17
2023-01-10T11:29:15.261Z,2.83
2023-01-10T11:31:42.462Z,2.40
2023-01-10T11:34:22.497Z,2.15
2023-01-10T11:37:04.076Z,2.10
2023-01-10T11:39:32.102Z,2.47
2023-01-10T11:42:24.440Z,2.20
2023-01-10T11:44:51.176Z,2.00
2023-01-10T11:47:20.788Z,1.90
2023-01-10T11:49:49.659Z,2.53
2023-01-10T11:52:25.931Z,2.15
2023-01-10T11:54:58.351Z,2.08
2023-01-10T12:00:02.138Z,2.47
2023-01-10T12:02:33.464Z,1.92
2023-01-10T12:05:06.243Z,1.60
2023-01-10T12:10:22.332Z,2.17
2023-01-10T12:12:58.248Z,1.77
2023-01-10T12:15:30.170Z,2.28
2023-01-10T12:17:59.584Z,2.40
2023-01-10T12:20:28.857Z,1.77
2023-01-10T12:23:03.468Z,2.40
2023-01-10T12:25:40.230Z,2.78
2023-01-10T12:28:18.164Z,3.00
2023-01-10T12:30:50.189Z,2.80
2023-01-10T12:33:22.468Z,2.70
2023-01-10T12:36:01.948Z,2.28
2023-01-10T12:38:59.335Z,2.42
2023-01-10T12:41:54.171Z,2.45
2023-01-10T12:44:28.458Z,2.92
2023-01-10T12:47:19.373Z,2.13
2023-01-10T12:49:57.551Z,2.30
2023-01-10T12:52:33.480Z,1.88
2023-01-10T12:55:00.785Z,2.20
2023-01-10T12:57:46.383Z,2.55
2023-01-10T13:00:32.760Z,2.25
2023-01-10T13:03:10.253Z,2.20
2023-01-10T13:05:37.126Z,1.98
2023-01-10T13:08:08.023Z,2.15
2023-01-10T13:10:41.984Z,2.00
2023-01-10T13:13:29.732Z,1.92
2023-01-10T13:16:37.142Z,1.80
2023-01-10T13:19:09.552Z,2.22
2023-01-10T13:21:38.788Z,1.75
2023-01-10T13:24:05.613Z,2.35
2023-01-10T13:26:58.710Z,2.13
2023-01-10T13:29:29.526Z,2.28
2023-01-10T13:32:00.417Z,1.75
2023-01-10T13:34:33.884Z,2.22
2023-01-10T13:37:04.743Z,2.28
2023-01-10T13:39:36.613Z,2.08
2023-01-10T13:42:21.985Z,1.92
2023-01-10T13:45:23.004Z,1.88
2023-01-10T13:47:54.535Z,2.10
2023-01-10T13:50:44.467Z,2.42
2023-01-10T13:53:12.883Z,1.27
2023-01-10T13:55:39.629Z,2.08
2023-01-10T13:58:15.606Z,1.90
2023-01-10T14:01:09.191Z,1.70
2023-01-10T14:03:50.275Z,1.63
2023-01-10T14:06:41.009Z,1.83
2023-01-10T14:09:33.051Z,1.60
2023-01-10T14:12:02.587Z,2.05
2023-01-10T14:14:33.531Z,1.75
2023-01-10T14:17:19.720Z,2.13
2023-01-10T14:19:50.624Z,1.30
2023-01-10T14:22:32.669Z,2.22
2023-01-10T14:25:01.280Z,2.10
2023-01-10T14:27:46.817Z,1.48
2023-01-10T14:30:24.333Z,1.85
2023-01-10T14:32:56.771Z,1.80
2023-01-10T14:35:32.722Z,1.70
2023-01-10T14:38:04.938Z,1.58
2023-01-10T14:40:50.748Z,1.48
2023-01-10T14:43:20.303Z,1.85
2023-01-10T14:46:03.215Z,1.50
2023-01-10T14:48:31.589Z,1.90
2023-01-10T14:51:21.040Z,1.60
2023-01-10T14:53:58.607Z,1.70
2023-01-10T14:56:28.266Z,2.00
2023-01-10T14:58:54.942Z,2.10
2023-01-10T15:01:28.327Z,2.60
2023-01-10T15:03:56.949Z,1.65
2023-01-10T15:06:25.901Z,1.83
2023-01-10T15:09:00.135Z,2.25
2023-01-10T15:11:27.864Z,2.35
2023-01-10T15:14:00.411Z,1.73
2023-01-10T15:16:28.631Z,1.58
2023-01-10T15:18:56.614Z,1.80
2023-01-10T15:21:24.325Z,1.38
2023-01-10T15:23:51.100Z,1.85
2023-01-10T15:26:25.255Z,1.35
2023-01-10T15:29:14.699Z,1.45
2023-01-10T15:31:42.829Z,1.63
2023-01-10T15:34:15.016Z,2.58
2023-01-10T15:37:01.707Z,1.70
2023-01-10T15:39:35.521Z,1.33
2023-01-10T15:42:06.650Z,1.48
2023-01-10T15:44:35.358Z,1.40
2023-01-10T15:47:02.069Z,1.80
2023-01-10T15:49:29.560Z,2.10
2023-01-10T15:51:57.584Z,1.40
2023-01-10T15:54:24.193Z,1.40
2023-01-10T15:56:52.227Z,1.73
2023-01-10T15:59:36.939Z,1.95
2023-01-10T16:02:16.090Z,1.42
2023-01-10T16:04:44.658Z,1.35
2023-01-10T16:07:28.929Z,1.70
2023-01-10T16:10:00.883Z,1.40
2023-01-10T16:12:59.347Z,1.27
2023-01-10T16:15:28.388Z,1.42
2023-01-10T16:17:55.096Z,1.52
2023-01-10T16:20:26.828Z,1.73
2023-01-10T16:22:54.048Z,1.55
2023-01-10T16:25:34.008Z,2.03
2023-01-10T16:28:00.867Z,1.42
2023-01-10T16:30:32.942Z,2.08
2023-01-10T16:33:02.719Z,1.90
2023-01-10T16:35:29.344Z,1.73
2023-01-10T16:37:57.428Z,1.65
2023-01-10T16:40:28.727Z,1.80
2023-01-10T16:43:14.887Z,2.33
2023-01-10T16:45:41.642Z,2.20
2023-01-10T16:48:09.881Z,2.00
2023-01-10T16:50:36.530Z,1.85
2023-01-10T16:53:06.114Z,2.13
2023-01-10T16:55:53.436Z,2.17
2023-01-10T16:58:21.060Z,1.95
2023-01-10T17:00:52.300Z,2.33
2023-01-10T17:03:22.277Z,2.17
2023-01-10T17:05:49.422Z,2.08
2023-01-10T17:08:21.717Z,2.00
2023-01-10T17:10:53.507Z,1.98
2023-01-10T17:13:29.308Z,2.00
2023-01-10T17:15:56.377Z,2.38
2023-01-10T17:18:24.836Z,2.58
2023-01-10T17:20:52.163Z,2.30
2023-01-10T17:23:18.824Z,2.47
2023-01-10T17:25:47.168Z,2.80
2023-01-10T17:28:13.942Z,2.20
2023-01-10T17:30:41.153Z,2.38
2023-01-10T17:33:10.871Z,2.78
2023-01-10T17:35:41.604Z,2.45
2023-01-10T17:38:13.544Z,2.55
2023-01-10T17:40:45.390Z,2.78
2023-01-10T17:43:14.328Z,2.40
2023-01-10T17:45:46.249Z,2.95
2023-01-10T17:48:16.110Z,2.53
2023-01-10T17:50:44.312Z,2.83
2023-01-10T17:53:11.692Z,2.55
2023-01-10T17:55:45.122Z,2.70
2023-01-10T17:58:11.862Z,3.15
2023-01-10T18:00:38.682Z,3.33
2023-01-10T18:03:05.827Z,2.90
2023-01-10T18:05:34.142Z,2.67
2023-01-10T18:08:05.876Z,2.63
2023-01-10T18:10:33.725Z,2.53
2023-01-10T18:13:02.582Z,3.72
2023-01-10T18:15:30.418Z,2.08
2023-01-10T18:17:57.838Z,2.50
2023-01-10T18:20:24.769Z,2.33
2023-01-10T18:23:10.026Z,2.58
2023-01-10T18:25:36.725Z,1.83
2023-01-10T18:28:03.468Z,2.25
2023-01-10T18:30:30.116Z,2.28
2023-01-10T18:32:57.138Z,2.33
2023-01-10T18:35:23.939Z,2.60
2023-01-10T18:37:50.643Z,2.55
2023-01-10T18:40:17.678Z,2.67
2023-01-10T18:42:44.468Z,2.50
2023-01-10T18:45:11.195Z,2.40
2023-01-10T18:47:37.868Z,2.92
2023-01-10T18:50:05.246Z,2.67
2023-01-10T18:52:32.008Z,2.72
2023-01-10T18:55:00.343Z,2.40
2023-01-10T18:57:32.552Z,2.15
2023-01-10T18:59:59.342Z,1.98
2023-01-10T19:02:26.186Z,2.88
2023-01-10T19:04:52.962Z,2.40
2023-01-10T19:07:19.754Z,2.90
2023-01-10T19:09:46.425Z,2.38
2023-01-10T19:12:13.175Z,1.75
2023-01-10T19:14:39.849Z,2.58
2023-01-10T19:17:06.806Z,2.88
2023-01-10T19:19:33.534Z,2.30
2023-01-10T19:22:00.335Z,2.28
2023-01-10T19:24:29.615Z,1.98
2023-01-10T19:26:56.885Z,3.72
2023-01-10T19:29:24.054Z,1.70
2023-01-10T19:31:50.897Z,2.03
2023-01-10T19:34:17.644Z,2.72
2023-01-10T19:36:45.473Z,2.15
2023-01-10T19:39:12.959Z,1.85
2023-01-10T19:41:40.239Z,2.13
2023-01-10T19:44:14.968Z,1.70
2023-01-10T19:46:43.933Z,1.75
2023-01-10T19:49:19.562Z,1.67
2023-01-10T19:51:51.171Z,1.52
2023-01-10T19:54:18.341Z,1.73
2023-01-10T19:56:44.976Z,1.90
2023-01-10T19:59:14.624Z,2.10
2023-01-10T20:01:41.787Z,1.92
2023-01-10T20:04:08.495Z,1.80
2023-01-10T20:06:38.061Z,1.35
2023-01-10T20:09:06.065Z,1.45
2023-01-10T20:11:42.783Z,1.80
2023-01-10T20:14:27.711Z,1.92
2023-01-10T20:16:54.403Z,1.60
2023-01-10T20:19:22.646Z,1.88
2023-01-10T20:21:49.759Z,2.38
2023-01-10T20:24:20.744Z,1.23
2023-01-10T20:26:49.216Z,1.77
2023-01-10T20:29:17.094Z,1.70
2023-01-10T20:31:47.165Z,1.33
2023-01-10T20:34:14.093Z,1.35
2023-01-10T20:36:41.253Z,1.45
2023-01-10T20:39:08.404Z,2.45
2023-01-10T20:41:37.214Z,1.83
2023-01-10T20:44:04.034Z,1.50
2023-01-10T20:46:33.031Z,1.70
2023-01-10T20:49:02.382Z,1.30
2023-01-10T20:51:32.983Z,1.83
2023-01-10T20:54:00.170Z,1.77
2023-01-10T20:56:29.174Z,1.35
2023-01-10T20:58:56.897Z,1.15
2023-01-10T21:01:34.239Z,1.83
2023-01-10T21:04:05.576Z,1.80
2023-01-10T21:06:33.241Z,1.90
2023-01-10T21:09:00.475Z,1.70
2023-01-10T21:11:27.527Z,1.35
2023-01-10T21:13:54.243Z,1.92
2023-01-10T21:16:22.193Z,1.58
2023-01-10T21:18:50.399Z,1.70
2023-01-10T21:21:19.491Z,1.60
2023-01-10T21:23:46.178Z,1.30
2023-01-10T21:26:14.819Z,1.80
2023-01-10T21:28:46.397Z,1.48
2023-01-10T21:31:18.389Z,1.38
2023-01-10T21:33:45.369Z,1.10
2023-01-10T21:36:13.398Z,1.70
2023-01-10T21:38:41.056Z,1.30
2023-01-10T21:41:11.679Z,1.10
2023-01-10T21:43:38.727Z,1.98
2023-01-10T21:46:05.539Z,1.40
2023-01-10T21:48:32.540Z,1.95
2023-01-10T21:50:59.248Z,1.90
2023-01-10T21:53:25.977Z,1.85
2023-01-10T21:55:52.742Z,1.70
2023-01-10T21:58:19.592Z,1.75
2023-01-10T22:00:46.275Z,1.63
2023-01-10T22:03:12.945Z,1.38
2023-01-10T22:05:39.703Z,1.52
2023-01-10T22:08:06.314Z,1.27
2023-01-10T22:10:32.974Z,1.50
2023-01-10T22:12:59.597Z,1.60
2023-01-10T22:15:27.099Z,2.15
2023-01-10T22:17:53.841Z,1.73
2023-01-10T22:20:20.567Z,1.70
2023-01-10T22:22:49.659Z,1.23
2023-01-10T22:25:16.386Z,1.52
2023-01-10T22:27:45.143Z,1.40
2023-01-10T22:30:12.351Z,1.60
2023-01-10T22:32:39.093Z,1.38
2023-01-10T22:35:06.823Z,1.65
2023-01-10T22:37:33.452Z,1.83
2023-01-10T22:40:00.167Z,1.45
2023-01-10T22:42:27.158Z,1.38
2023-01-10T22:44:53.858Z,1.50
2023-01-10T22:47:20.511Z,1.23
2023-01-10T22:49:47.103Z,1.30
2023-01-10T22:52:13.772Z,1.40
2023-01-10T22:54:40.377Z,1.42
2023-01-10T22:57:07.709Z,1.30
2023-01-10T22:59:35.931Z,1.40
2023-01-10T23:02:02.778Z,1.20
2023-01-10T23:04:29.479Z,1.70
2023-01-10T23:06:56.772Z,1.42
2023-01-10T23:09:23.561Z,2.10
2023-01-10T23:11:50.246Z,1.67
2023-01-10T23:14:16.920Z,1.45
2023-01-10T23:16:44.607Z,1.83
2023-01-10T23:19:11.554Z,1.50
2023-01-10T23:21:38.281Z,1.45
2023-01-10T23:24:05.339Z,1.80
2023-01-10T23:26:32.004Z,1.85
2023-01-10T23:28:58.705Z,1.90
2023-01-10T23:31:29.313Z,2.10
2023-01-10T23:33:56.445Z,1.67
2023-01-10T23:36:23.961Z,1.63
2023-01-10T23:38:51.049Z,1.90
2023-01-10T23:41:20.988Z,1.83
2023-01-10T23:43:49.276Z,2.00
2023-01-10T23:46:16.029Z,2.30
2023-01-10T23:48:45.155Z,1.50
2023-01-10T23:51:12.586Z,2.70
2023-01-10T23:53:40.049Z,2.00
2023-01-10T23:56:09.423Z,1.88
2023-01-10T23:58:36.337Z,1.88
